Terminal Aerodrome Forecast
Issued by NWS

Home | Current Version | Previous Version | Graphics & Text | Print | Product List | Glossary On
Versions: 1 2 3 4 5 6 7 8 9 10 11 12 13 14 15 16 17 18 19 20 21 22 23 24 25 26 27 28 29 30 31 32 33 34 35 36
000
FTUS43 KLOT 011300 AAA
TAFORD
TAF AMD
KORD 011355Z 0114/0218 26006KT P6SM FEW050 SCT100 BKN250
     FM011500 25007KT P6SM VCSH BKN050
     FM011700 24006KT P6SM VCTS BKN050CB
     FM012000 08007KT P6SM BKN050
     FM020100 VRB04KT P6SM SCT050
     FM021500 04007KT P6SM SCT050=

USA.gov is the U.S. government's official web portal to all federal, state and local government web resources and services.